sensor_id;sensor_type;location;lat;lon;timestamp;P1;durP1;ratioP1;P2;durP2;ratioP2
34497;SDS011;20744;50.938;7.286;2022-10-18T00:00:03;18.02;;;10.77;;
34497;SDS011;20744;50.938;7.286;2022-10-18T00:02:32;13.95;;;10.25;;
34497;SDS011;20744;50.938;7.286;2022-10-18T00:05:00;17.08;;;10.80;;
34497;SDS011;20744;50.938;7.286;2022-10-18T00:07:27;17.23;;;10.57;;
34497;SDS011;20744;50.938;7.286;2022-10-18T00:09:54;16.13;;;11.43;;
34497;SDS011;20744;50.938;7.286;2022-10-18T00:12:22;19.42;;;10.10;;
34497;SDS011;20744;50.938;7.286;2022-10-18T00:14:49;81.40;;;12.05;;
34497;SDS011;20744;50.938;7.286;2022-10-18T00:17:16;16.73;;;9.82;;
34497;SDS011;20744;50.938;7.286;2022-10-18T00:19:45;11.65;;;8.35;;
34497;SDS011;20744;50.938;7.286;2022-10-18T00:22:14;10.63;;;7.85;;
34497;SDS011;20744;50.938;7.286;2022-10-18T00:24:41;14.05;;;8.80;;
34497;SDS011;20744;50.938;7.286;2022-10-18T00:27:08;18.35;;;9.07;;
34497;SDS011;20744;50.938;7.286;2022-10-18T00:29:36;15.00;;;9.25;;
34497;SDS011;20744;50.938;7.286;2022-10-18T00:32:03;16.40;;;10.95;;
34497;SDS011;20744;50.938;7.286;2022-10-18T00:34:30;17.50;;;11.27;;
34497;SDS011;20744;50.938;7.286;2022-10-18T00:36:59;19.02;;;11.13;;
34497;SDS011;20744;50.938;7.286;2022-10-18T00:39:26;30.65;;;12.10;;
34497;SDS011;20744;50.938;7.286;2022-10-18T00:41:53;16.00;;;9.07;;
34497;SDS011;20744;50.938;7.286;2022-10-18T00:49:34;20.00;;;10.35;;
34497;SDS011;20744;50.938;7.286;2022-10-18T00:52:04;18.52;;;9.55;;
34497;SDS011;20744;50.938;7.286;2022-10-18T00:54:34;19.45;;;9.57;;
34497;SDS011;20744;50.938;7.286;2022-10-18T00:57:02;17.08;;;9.23;;
34497;SDS011;20744;50.938;7.286;2022-10-18T00:59:30;18.33;;;10.73;;
34497;SDS011;20744;50.938;7.286;2022-10-18T01:01:58;16.77;;;10.63;;
34497;SDS011;20744;50.938;7.286;2022-10-18T01:04:25;21.20;;;12.15;;
34497;SDS011;20744;50.938;7.286;2022-10-18T01:06:54;21.15;;;12.45;;
34497;SDS011;20744;50.938;7.286;2022-10-18T01:09:25;22.55;;;12.30;;
34497;SDS011;20744;50.938;7.286;2022-10-18T01:12:01;32.15;;;14.50;;
34497;SDS011;20744;50.938;7.286;2022-10-18T01:14:33;23.95;;;13.52;;
34497;SDS011;20744;50.938;7.286;2022-10-18T01:17:02;22.15;;;13.70;;
34497;SDS011;20744;50.938;7.286;2022-10-18T01:22:19;22.08;;;12.60;;
34497;SDS011;20744;50.938;7.286;2022-10-18T01:25:00;26.45;;;12.82;;
34497;SDS011;20744;50.938;7.286;2022-10-18T01:27:40;16.85;;;10.82;;
34497;SDS011;20744;50.938;7.286;2022-10-18T01:30:27;24.40;;;10.70;;
34497;SDS011;20744;50.938;7.286;2022-10-18T01:32:59;18.95;;;10.68;;
34497;SDS011;20744;50.938;7.286;2022-10-18T01:35:30;18.65;;;9.80;;
34497;SDS011;20744;50.938;7.286;2022-10-18T01:37:58;15.05;;;10.15;;
34497;SDS011;20744;50.938;7.286;2022-10-18T01:40:26;15.20;;;9.73;;
34497;SDS011;20744;50.938;7.286;2022-10-18T01:42:56;16.48;;;10.05;;
34497;SDS011;20744;50.938;7.286;2022-10-18T01:45:23;18.33;;;9.15;;
34497;SDS011;20744;50.938;7.286;2022-10-18T01:47:52;15.90;;;9.27;;
34497;SDS011;20744;50.938;7.286;2022-10-18T01:50:27;15.32;;;8.07;;
34497;SDS011;20744;50.938;7.286;2022-10-18T01:52:54;18.38;;;9.10;;
34497;SDS011;20744;50.938;7.286;2022-10-18T01:55:23;32.92;;;11.07;;
34497;SDS011;20744;50.938;7.286;2022-10-18T01:57:54;24.65;;;9.73;;
34497;SDS011;20744;50.938;7.286;2022-10-18T02:00:24;14.05;;;8.93;;
34497;SDS011;20744;50.938;7.286;2022-10-18T02:02:55;17.40;;;9.30;;
34497;SDS011;20744;50.938;7.286;2022-10-18T02:05:26;66.00;;;12.85;;
34497;SDS011;20744;50.938;7.286;2022-10-18T02:07:57;18.38;;;8.75;;
34497;SDS011;20744;50.938;7.286;2022-10-18T02:10:27;14.98;;;8.55;;
34497;SDS011;20744;50.938;7.286;2022-10-18T02:12:55;18.55;;;9.00;;
34497;SDS011;20744;50.938;7.286;2022-10-18T02:15:23;18.90;;;8.80;;
34497;SDS011;20744;50.938;7.286;2022-10-18T02:17:52;14.25;;;8.63;;
34497;SDS011;20744;50.938;7.286;2022-10-18T02:20:22;16.33;;;9.68;;
34497;SDS011;20744;50.938;7.286;2022-10-18T02:22:50;21.45;;;9.90;;
34497;SDS011;20744;50.938;7.286;2022-10-18T02:25:20;19.50;;;10.07;;
34497;SDS011;20744;50.938;7.286;2022-10-18T02:27:48;18.35;;;9.95;;
34497;SDS011;20744;50.938;7.286;2022-10-18T02:30:15;22.20;;;10.23;;
34497;SDS011;20744;50.938;7.286;2022-10-18T02:32:43;20.52;;;11.07;;
34497;SDS011;20744;50.938;7.286;2022-10-18T02:35:14;21.13;;;10.80;;
34497;SDS011;20744;50.938;7.286;2022-10-18T02:37:46;18.23;;;10.32;;
34497;SDS011;20744;50.938;7.286;2022-10-18T02:40:14;19.10;;;10.35;;
34497;SDS011;20744;50.938;7.286;2022-10-18T02:42:43;19.10;;;9.85;;
34497;SDS011;20744;50.938;7.286;2022-10-18T02:45:10;17.05;;;10.00;;
34497;SDS011;20744;50.938;7.286;2022-10-18T02:47:39;20.35;;;10.10;;
34497;SDS011;20744;50.938;7.286;2022-10-18T02:50:06;20.98;;;10.98;;
34497;SDS011;20744;50.938;7.286;2022-10-18T02:52:33;17.02;;;9.88;;
34497;SDS011;20744;50.938;7.286;2022-10-18T02:55:02;19.05;;;11.40;;
34497;SDS011;20744;50.938;7.286;2022-10-18T02:57:29;17.75;;;10.73;;
34497;SDS011;20744;50.938;7.286;2022-10-18T02:59:57;16.70;;;10.48;;
34497;SDS011;20744;50.938;7.286;2022-10-18T03:02:24;23.10;;;11.73;;
34497;SDS011;20744;50.938;7.286;2022-10-18T03:04:51;20.42;;;12.05;;
34497;SDS011;20744;50.938;7.286;2022-10-18T03:07:18;24.42;;;12.30;;
34497;SDS011;20744;50.938;7.286;2022-10-18T03:09:46;26.05;;;12.10;;
34497;SDS011;20744;50.938;7.286;2022-10-18T03:12:14;21.80;;;12.35;;
34497;SDS011;20744;50.938;7.286;2022-10-18T03:14:42;29.08;;;12.85;;
34497;SDS011;20744;50.938;7.286;2022-10-18T03:17:09;20.45;;;10.95;;
34497;SDS011;20744;50.938;7.286;2022-10-18T03:19:36;19.00;;;12.82;;
34497;SDS011;20744;50.938;7.286;2022-10-18T03:22:03;20.25;;;11.98;;
34497;SDS011;20744;50.938;7.286;2022-10-18T03:24:31;21.60;;;12.40;;
34497;SDS011;20744;50.938;7.286;2022-10-18T03:26:58;24.38;;;13.20;;
34497;SDS011;20744;50.938;7.286;2022-10-18T03:29:27;20.50;;;12.10;;
34497;SDS011;20744;50.938;7.286;2022-10-18T03:31:54;27.30;;;11.90;;
34497;SDS011;20744;50.938;7.286;2022-10-18T03:34:21;25.40;;;13.25;;
34497;SDS011;20744;50.938;7.286;2022-10-18T03:36:48;29.48;;;13.52;;
34497;SDS011;20744;50.938;7.286;2022-10-18T03:39:15;30.33;;;13.43;;
34497;SDS011;20744;50.938;7.286;2022-10-18T03:41:43;20.35;;;11.98;;
34497;SDS011;20744;50.938;7.286;2022-10-18T03:44:10;22.20;;;12.90;;
34497;SDS011;20744;50.938;7.286;2022-10-18T03:46:38;22.60;;;11.90;;
34497;SDS011;20744;50.938;7.286;2022-10-18T03:49:06;18.83;;;11.95;;
34497;SDS011;20744;50.938;7.286;2022-10-18T03:51:33;18.25;;;10.77;;
34497;SDS011;20744;50.938;7.286;2022-10-18T03:54:00;23.77;;;10.82;;
34497;SDS011;20744;50.938;7.286;2022-10-18T03:56:27;20.23;;;11.27;;
34497;SDS011;20744;50.938;7.286;2022-10-18T03:58:54;28.83;;;12.60;;
34497;SDS011;20744;50.938;7.286;2022-10-18T04:01:22;25.73;;;12.05;;
34497;SDS011;20744;50.938;7.286;2022-10-18T04:03:50;22.70;;;11.98;;
34497;SDS011;20744;50.938;7.286;2022-10-18T04:06:18;21.13;;;12.07;;
34497;SDS011;20744;50.938;7.286;2022-10-18T04:08:45;26.70;;;13.02;;
34497;SDS011;20744;50.938;7.286;2022-10-18T04:11:12;20.80;;;11.73;;
34497;SDS011;20744;50.938;7.286;2022-10-18T04:13:39;22.73;;;11.80;;
34497;SDS011;20744;50.938;7.286;2022-10-18T04:16:07;19.38;;;11.73;;
34497;SDS011;20744;50.938;7.286;2022-10-18T04:18:34;20.27;;;11.90;;
34497;SDS011;20744;50.938;7.286;2022-10-18T04:21:02;23.38;;;11.73;;
34497;SDS011;20744;50.938;7.286;2022-10-18T04:23:30;18.75;;;11.25;;
34497;SDS011;20744;50.938;7.286;2022-10-18T04:25:57;25.58;;;11.57;;
34497;SDS011;20744;50.938;7.286;2022-10-18T04:28:24;20.60;;;11.63;;
34497;SDS011;20744;50.938;7.286;2022-10-18T04:30:51;24.80;;;12.10;;
34497;SDS011;20744;50.938;7.286;2022-10-18T04:33:19;24.05;;;12.32;;
34497;SDS011;20744;50.938;7.286;2022-10-18T04:35:46;28.17;;;12.70;;
34497;SDS011;20744;50.938;7.286;2022-10-18T04:38:18;18.52;;;11.65;;
34497;SDS011;20744;50.938;7.286;2022-10-18T04:40:45;19.90;;;11.55;;
34497;SDS011;20744;50.938;7.286;2022-10-18T04:43:13;22.33;;;11.75;;
34497;SDS011;20744;50.938;7.286;2022-10-18T04:45:40;21.05;;;11.88;;
34497;SDS011;20744;50.938;7.286;2022-10-18T04:48:07;23.35;;;12.10;;
34497;SDS011;20744;50.938;7.286;2022-10-18T04:50:34;32.55;;;12.63;;
34497;SDS011;20744;50.938;7.286;2022-10-18T04:53:02;20.45;;;11.90;;
34497;SDS011;20744;50.938;7.286;2022-10-18T04:55:30;19.15;;;11.20;;
34497;SDS011;20744;50.938;7.286;2022-10-18T04:57:57;28.45;;;11.43;;
34497;SDS011;20744;50.938;7.286;2022-10-18T05:00:25;34.63;;;11.80;;
34497;SDS011;20744;50.938;7.286;2022-10-18T05:02:54;22.00;;;10.48;;
34497;SDS011;20744;50.938;7.286;2022-10-18T05:05:22;21.17;;;11.18;;
34497;SDS011;20744;50.938;7.286;2022-10-18T05:07:49;22.30;;;11.85;;
34497;SDS011;20744;50.938;7.286;2022-10-18T05:10:16;22.15;;;9.63;;
34497;SDS011;20744;50.938;7.286;2022-10-18T05:12:45;16.70;;;8.95;;
34497;SDS011;20744;50.938;7.286;2022-10-18T05:15:12;17.67;;;10.15;;
34497;SDS011;20744;50.938;7.286;2022-10-18T05:17:39;19.65;;;10.85;;
34497;SDS011;20744;50.938;7.286;2022-10-18T05:20:07;25.90;;;11.15;;
34497;SDS011;20744;50.938;7.286;2022-10-18T05:22:34;23.10;;;10.85;;
34497;SDS011;20744;50.938;7.286;2022-10-18T05:25:01;23.45;;;10.25;;
34497;SDS011;20744;50.938;7.286;2022-10-18T05:27:29;16.92;;;10.25;;
34497;SDS011;20744;50.938;7.286;2022-10-18T05:29:57;22.05;;;10.52;;
34497;SDS011;20744;50.938;7.286;2022-10-18T05:32:24;25.48;;;11.45;;
34497;SDS011;20744;50.938;7.286;2022-10-18T05:34:52;22.08;;;11.63;;
34497;SDS011;20744;50.938;7.286;2022-10-18T05:37:19;20.10;;;10.57;;
34497;SDS011;20744;50.938;7.286;2022-10-18T05:39:46;28.60;;;12.23;;
34497;SDS011;20744;50.938;7.286;2022-10-18T05:42:13;24.35;;;11.02;;
34497;SDS011;20744;50.938;7.286;2022-10-18T05:44:40;22.92;;;10.95;;
34497;SDS011;20744;50.938;7.286;2022-10-18T05:47:09;20.02;;;10.82;;
34497;SDS011;20744;50.938;7.286;2022-10-18T05:49:36;29.88;;;12.93;;
34497;SDS011;20744;50.938;7.286;2022-10-18T05:52:04;25.60;;;12.65;;
34497;SDS011;20744;50.938;7.286;2022-10-18T05:54:31;28.02;;;11.93;;
34497;SDS011;20744;50.938;7.286;2022-10-18T05:56:58;27.67;;;11.88;;
34497;SDS011;20744;50.938;7.286;2022-10-18T05:59:25;206.88;;;16.65;;
34497;SDS011;20744;50.938;7.286;2022-10-18T06:01:53;35.58;;;13.98;;
34497;SDS011;20744;50.938;7.286;2022-10-18T06:04:21;29.70;;;12.85;;
34497;SDS011;20744;50.938;7.286;2022-10-18T06:06:48;26.95;;;11.70;;
34497;SDS011;20744;50.938;7.286;2022-10-18T06:09:16;285.65;;;24.00;;
34497;SDS011;20744;50.938;7.286;2022-10-18T06:11:43;22.60;;;12.40;;
34497;SDS011;20744;50.938;7.286;2022-10-18T06:14:10;20.52;;;11.23;;
34497;SDS011;20744;50.938;7.286;2022-10-18T06:16:37;29.88;;;11.52;;
34497;SDS011;20744;50.938;7.286;2022-10-18T06:19:05;39.42;;;12.10;;
34497;SDS011;20744;50.938;7.286;2022-10-18T06:21:33;21.15;;;11.88;;
34497;SDS011;20744;50.938;7.286;2022-10-18T06:24:00;25.55;;;10.82;;
34497;SDS011;20744;50.938;7.286;2022-10-18T06:26:27;19.90;;;11.13;;
34497;SDS011;20744;50.938;7.286;2022-10-18T06:28:55;35.35;;;10.43;;
34497;SDS011;20744;50.938;7.286;2022-10-18T06:31:22;30.45;;;12.30;;
34497;SDS011;20744;50.938;7.286;2022-10-18T06:33:49;27.13;;;11.45;;
34497;SDS011;20744;50.938;7.286;2022-10-18T06:36:17;29.33;;;10.70;;
34497;SDS011;20744;50.938;7.286;2022-10-18T06:38:47;24.50;;;12.05;;
34497;SDS011;20744;50.938;7.286;2022-10-18T06:41:14;25.02;;;11.43;;
34497;SDS011;20744;50.938;7.286;2022-10-18T06:43:46;34.38;;;12.60;;
34497;SDS011;20744;50.938;7.286;2022-10-18T06:46:13;24.90;;;12.57;;
34497;SDS011;20744;50.938;7.286;2022-10-18T06:48:40;44.55;;;14.40;;
34497;SDS011;20744;50.938;7.286;2022-10-18T06:51:08;41.75;;;14.15;;
34497;SDS011;20744;50.938;7.286;2022-10-18T06:53:36;23.90;;;12.02;;
34497;SDS011;20744;50.938;7.286;2022-10-18T06:56:06;29.65;;;14.05;;
34497;SDS011;20744;50.938;7.286;2022-10-18T06:58:33;43.00;;;17.25;;
34497;SDS011;20744;50.938;7.286;2022-10-18T07:01:04;27.60;;;13.80;;
34497;SDS011;20744;50.938;7.286;2022-10-18T07:03:31;44.65;;;16.55;;
34497;SDS011;20744;50.938;7.286;2022-10-18T07:05:59;27.38;;;14.85;;
34497;SDS011;20744;50.938;7.286;2022-10-18T07:08:26;28.83;;;16.05;;
34497;SDS011;20744;50.938;7.286;2022-10-18T07:10:54;26.33;;;13.52;;
34497;SDS011;20744;50.938;7.286;2022-10-18T07:13:22;28.05;;;12.88;;
34497;SDS011;20744;50.938;7.286;2022-10-18T07:15:58;31.42;;;13.38;;
34497;SDS011;20744;50.938;7.286;2022-10-18T07:18:25;29.08;;;13.82;;
34497;SDS011;20744;50.938;7.286;2022-10-18T07:20:52;23.20;;;13.13;;
34497;SDS011;20744;50.938;7.286;2022-10-18T07:23:20;27.98;;;12.98;;
34497;SDS011;20744;50.938;7.286;2022-10-18T07:25:48;32.17;;;15.15;;
34497;SDS011;20744;50.938;7.286;2022-10-18T07:28:15;54.58;;;16.63;;
34497;SDS011;20744;50.938;7.286;2022-10-18T07:30:43;107.70;;;21.80;;
34497;SDS011;20744;50.938;7.286;2022-10-18T07:33:11;35.58;;;17.45;;
34497;SDS011;20744;50.938;7.286;2022-10-18T07:35:38;38.38;;;17.77;;
34497;SDS011;20744;50.938;7.286;2022-10-18T07:38:05;47.67;;;19.45;;
34497;SDS011;20744;50.938;7.286;2022-10-18T07:40:32;49.97;;;19.38;;
34497;SDS011;20744;50.938;7.286;2022-10-18T07:43:00;49.17;;;19.70;;
34497;SDS011;20744;50.938;7.286;2022-10-18T07:45:27;36.95;;;17.33;;
34497;SDS011;20744;50.938;7.286;2022-10-18T07:47:55;31.80;;;16.33;;
34497;SDS011;20744;50.938;7.286;2022-10-18T07:50:23;37.45;;;17.42;;
34497;SDS011;20744;50.938;7.286;2022-10-18T07:52:50;40.55;;;17.20;;
34497;SDS011;20744;50.938;7.286;2022-10-18T07:55:17;40.28;;;17.17;;
34497;SDS011;20744;50.938;7.286;2022-10-18T07:57:44;40.47;;;17.25;;
34497;SDS011;20744;50.938;7.286;2022-10-18T08:00:12;36.45;;;16.45;;
34497;SDS011;20744;50.938;7.286;2022-10-18T08:02:39;33.63;;;15.82;;
34497;SDS011;20744;50.938;7.286;2022-10-18T08:05:08;36.42;;;15.02;;
34497;SDS011;20744;50.938;7.286;2022-10-18T08:07:35;29.77;;;14.20;;
34497;SDS011;20744;50.938;7.286;2022-10-18T08:10:02;33.42;;;15.20;;
34497;SDS011;20744;50.938;7.286;2022-10-18T08:12:30;32.13;;;15.55;;
34497;SDS011;20744;50.938;7.286;2022-10-18T08:14:57;44.85;;;17.88;;
34497;SDS011;20744;50.938;7.286;2022-10-18T08:17:24;33.10;;;15.88;;
34497;SDS011;20744;50.938;7.286;2022-10-18T08:19:51;27.98;;;15.32;;
34497;SDS011;20744;50.938;7.286;2022-10-18T08:22:20;35.08;;;16.17;;
34497;SDS011;20744;50.938;7.286;2022-10-18T08:24:48;33.25;;;16.38;;
34497;SDS011;20744;50.938;7.286;2022-10-18T08:27:15;33.85;;;15.60;;
34497;SDS011;20744;50.938;7.286;2022-10-18T08:29:42;33.67;;;17.15;;
34497;SDS011;20744;50.938;7.286;2022-10-18T08:32:09;33.08;;;16.75;;
34497;SDS011;20744;50.938;7.286;2022-10-18T08:34:36;34.15;;;15.55;;
34497;SDS011;20744;50.938;7.286;2022-10-18T08:37:04;32.83;;;16.83;;
34497;SDS011;20744;50.938;7.286;2022-10-18T08:39:32;33.65;;;16.30;;
34497;SDS011;20744;50.938;7.286;2022-10-18T08:44:48;34.28;;;15.68;;
34497;SDS011;20744;50.938;7.286;2022-10-18T08:47:17;29.15;;;15.27;;
34497;SDS011;20744;50.938;7.286;2022-10-18T08:49:45;28.58;;;14.93;;
34497;SDS011;20744;50.938;7.286;2022-10-18T08:52:15;29.15;;;13.93;;
34497;SDS011;20744;50.938;7.286;2022-10-18T08:54:48;29.23;;;15.05;;
34497;SDS011;20744;50.938;7.286;2022-10-18T08:57:18;44.05;;;16.70;;
34497;SDS011;20744;50.938;7.286;2022-10-18T08:59:46;27.48;;;14.05;;
34497;SDS011;20744;50.938;7.286;2022-10-18T09:02:19;25.00;;;15.63;;
34497;SDS011;20744;50.938;7.286;2022-10-18T09:04:53;30.60;;;17.27;;
34497;SDS011;20744;50.938;7.286;2022-10-18T09:07:26;33.80;;;16.85;;
34497;SDS011;20744;50.938;7.286;2022-10-18T09:10:03;34.58;;;15.93;;
34497;SDS011;20744;50.938;7.286;2022-10-18T09:12:39;27.65;;;14.00;;
34497;SDS011;20744;50.938;7.286;2022-10-18T09:17:38;37.70;;;18.00;;
34497;SDS011;20744;50.938;7.286;2022-10-18T09:20:12;29.20;;;15.93;;
34497;SDS011;20744;50.938;7.286;2022-10-18T09:22:48;33.42;;;18.33;;
34497;SDS011;20744;50.938;7.286;2022-10-18T09:25:19;31.33;;;17.13;;
34497;SDS011;20744;50.938;7.286;2022-10-18T09:27:51;36.20;;;18.17;;
34497;SDS011;20744;50.938;7.286;2022-10-18T09:30:25;38.05;;;18.02;;
34497;SDS011;20744;50.938;7.286;2022-10-18T09:32:55;38.20;;;19.13;;
34497;SDS011;20744;50.938;7.286;2022-10-18T09:35:26;36.78;;;18.00;;
34497;SDS011;20744;50.938;7.286;2022-10-18T09:37:54;33.15;;;17.05;;
34497;SDS011;20744;50.938;7.286;2022-10-18T09:40:27;36.78;;;20.13;;
34497;SDS011;20744;50.938;7.286;2022-10-18T09:42:57;40.53;;;21.88;;
34497;SDS011;20744;50.938;7.286;2022-10-18T09:45:25;45.97;;;22.65;;
34497;SDS011;20744;50.938;7.286;2022-10-18T09:47:56;47.47;;;23.15;;
34497;SDS011;20744;50.938;7.286;2022-10-18T09:50:28;48.05;;;23.70;;
34497;SDS011;20744;50.938;7.286;2022-10-18T09:52:58;50.55;;;24.13;;
34497;SDS011;20744;50.938;7.286;2022-10-18T09:55:29;46.28;;;22.73;;
34497;SDS011;20744;50.938;7.286;2022-10-18T09:57:59;45.10;;;22.73;;
34497;SDS011;20744;50.938;7.286;2022-10-18T10:00:28;44.38;;;21.08;;
34497;SDS011;20744;50.938;7.286;2022-10-18T10:02:57;44.30;;;20.83;;
34497;SDS011;20744;50.938;7.286;2022-10-18T10:05:24;39.28;;;20.73;;
34497;SDS011;20744;50.938;7.286;2022-10-18T10:07:56;50.35;;;21.80;;
34497;SDS011;20744;50.938;7.286;2022-10-18T10:10:24;46.13;;;20.98;;
34497;SDS011;20744;50.938;7.286;2022-10-18T10:13:02;42.88;;;21.38;;
34497;SDS011;20744;50.938;7.286;2022-10-18T10:15:30;47.38;;;21.52;;
34497;SDS011;20744;50.938;7.286;2022-10-18T10:18:00;44.30;;;21.73;;
34497;SDS011;20744;50.938;7.286;2022-10-18T10:20:30;44.03;;;21.25;;
34497;SDS011;20744;50.938;7.286;2022-10-18T10:23:03;45.45;;;22.35;;
34497;SDS011;20744;50.938;7.286;2022-10-18T10:25:33;48.95;;;22.75;;
34497;SDS011;20744;50.938;7.286;2022-10-18T10:28:04;46.85;;;23.45;;
34497;SDS011;20744;50.938;7.286;2022-10-18T10:30:33;48.90;;;24.25;;
34497;SDS011;20744;50.938;7.286;2022-10-18T10:33:01;49.35;;;23.92;;
34497;SDS011;20744;50.938;7.286;2022-10-18T10:35:30;49.35;;;24.38;;
34497;SDS011;20744;50.938;7.286;2022-10-18T10:37:57;52.67;;;24.85;;
34497;SDS011;20744;50.938;7.286;2022-10-18T10:40:26;55.47;;;25.90;;
34497;SDS011;20744;50.938;7.286;2022-10-18T10:42:59;49.95;;;25.08;;
34497;SDS011;20744;50.938;7.286;2022-10-18T10:45:28;56.55;;;27.25;;
34497;SDS011;20744;50.938;7.286;2022-10-18T10:48:00;52.42;;;26.30;;
34497;SDS011;20744;50.938;7.286;2022-10-18T10:50:28;53.38;;;26.13;;
34497;SDS011;20744;50.938;7.286;2022-10-18T10:52:56;54.00;;;24.02;;
34497;SDS011;20744;50.938;7.286;2022-10-18T10:55:25;59.33;;;26.90;;
34497;SDS011;20744;50.938;7.286;2022-10-18T10:57:54;44.63;;;23.75;;
34497;SDS011;20744;50.938;7.286;2022-10-18T11:00:36;41.17;;;23.13;;
34497;SDS011;20744;50.938;7.286;2022-10-18T11:03:04;49.10;;;23.70;;
34497;SDS011;20744;50.938;7.286;2022-10-18T11:05:32;45.28;;;23.08;;
34497;SDS011;20744;50.938;7.286;2022-10-18T11:08:08;38.03;;;21.02;;
34497;SDS011;20744;50.938;7.286;2022-10-18T11:10:38;37.53;;;19.80;;
34497;SDS011;20744;50.938;7.286;2022-10-18T11:13:15;46.50;;;23.27;;
34497;SDS011;20744;50.938;7.286;2022-10-18T11:15:49;42.70;;;23.08;;
34497;SDS011;20744;50.938;7.286;2022-10-18T11:18:20;49.10;;;24.40;;
34497;SDS011;20744;50.938;7.286;2022-10-18T11:20:49;47.85;;;25.33;;
34497;SDS011;20744;50.938;7.286;2022-10-18T11:23:18;39.13;;;21.20;;
34497;SDS011;20744;50.938;7.286;2022-10-18T11:28:37;36.40;;;19.83;;
34497;SDS011;20744;50.938;7.286;2022-10-18T11:31:13;37.88;;;20.95;;
34497;SDS011;20744;50.938;7.286;2022-10-18T11:33:48;44.83;;;21.83;;
34497;SDS011;20744;50.938;7.286;2022-10-18T11:36:19;41.58;;;20.88;;
34497;SDS011;20744;50.938;7.286;2022-10-18T11:38:52;36.38;;;21.33;;
34497;SDS011;20744;50.938;7.286;2022-10-18T11:41:26;39.53;;;21.40;;
34497;SDS011;20744;50.938;7.286;2022-10-18T11:43:56;40.92;;;21.48;;
34497;SDS011;20744;50.938;7.286;2022-10-18T11:46:28;42.40;;;21.40;;
34497;SDS011;20744;50.938;7.286;2022-10-18T11:49:06;49.38;;;23.38;;
34497;SDS011;20744;50.938;7.286;2022-10-18T11:51:40;41.33;;;22.45;;
34497;SDS011;20744;50.938;7.286;2022-10-18T11:54:15;42.50;;;21.83;;
34497;SDS011;20744;50.938;7.286;2022-10-18T11:56:46;43.00;;;22.35;;
34497;SDS011;20744;50.938;7.286;2022-10-18T11:59:23;44.38;;;22.77;;
34497;SDS011;20744;50.938;7.286;2022-10-18T12:01:58;44.85;;;23.92;;
34497;SDS011;20744;50.938;7.286;2022-10-18T12:04:30;39.33;;;20.93;;
34497;SDS011;20744;50.938;7.286;2022-10-18T12:06:59;40.67;;;22.95;;
34497;SDS011;20744;50.938;7.286;2022-10-18T12:09:27;55.13;;;25.40;;
34497;SDS011;20744;50.938;7.286;2022-10-18T12:11:56;44.63;;;24.15;;
34497;SDS011;20744;50.938;7.286;2022-10-18T12:14:24;49.30;;;24.25;;
34497;SDS011;20744;50.938;7.286;2022-10-18T12:16:53;44.75;;;23.75;;
34497;SDS011;20744;50.938;7.286;2022-10-18T12:19:24;35.00;;;21.15;;
34497;SDS011;20744;50.938;7.286;2022-10-18T12:21:52;34.78;;;20.17;;
34497;SDS011;20744;50.938;7.286;2022-10-18T12:24:21;40.40;;;20.60;;
34497;SDS011;20744;50.938;7.286;2022-10-18T12:26:50;36.00;;;20.30;;
34497;SDS011;20744;50.938;7.286;2022-10-18T12:29:20;33.80;;;19.00;;
34497;SDS011;20744;50.938;7.286;2022-10-18T12:31:51;37.40;;;20.60;;
34497;SDS011;20744;50.938;7.286;2022-10-18T12:34:28;37.55;;;20.55;;
34497;SDS011;20744;50.938;7.286;2022-10-18T12:37:05;34.70;;;20.00;;
34497;SDS011;20744;50.938;7.286;2022-10-18T12:39:35;34.58;;;20.17;;
34497;SDS011;20744;50.938;7.286;2022-10-18T12:42:04;33.28;;;19.48;;
34497;SDS011;20744;50.938;7.286;2022-10-18T12:44:32;33.40;;;19.77;;
34497;SDS011;20744;50.938;7.286;2022-10-18T12:47:00;30.00;;;17.80;;
34497;SDS011;20744;50.938;7.286;2022-10-18T12:49:30;29.58;;;16.33;;
34497;SDS011;20744;50.938;7.286;2022-10-18T12:51:58;26.08;;;17.30;;
34497;SDS011;20744;50.938;7.286;2022-10-18T12:54:27;28.83;;;16.60;;
34497;SDS011;20744;50.938;7.286;2022-10-18T12:56:56;32.97;;;18.20;;
34497;SDS011;20744;50.938;7.286;2022-10-18T13:02:26;29.08;;;17.73;;
34497;SDS011;20744;50.938;7.286;2022-10-18T13:04:55;30.15;;;17.52;;
34497;SDS011;20744;50.938;7.286;2022-10-18T13:07:32;29.38;;;17.65;;
34497;SDS011;20744;50.938;7.286;2022-10-18T13:15:58;27.50;;;16.38;;
34497;SDS011;20744;50.938;7.286;2022-10-18T13:18:29;22.88;;;15.48;;
34497;SDS011;20744;50.938;7.286;2022-10-18T13:21:09;25.40;;;16.05;;
34497;SDS011;20744;50.938;7.286;2022-10-18T13:23:40;23.77;;;15.93;;
34497;SDS011;20744;50.938;7.286;2022-10-18T13:26:11;23.35;;;15.93;;
34497;SDS011;20744;50.938;7.286;2022-10-18T13:28:44;26.92;;;16.98;;
34497;SDS011;20744;50.938;7.286;2022-10-18T13:31:16;27.63;;;16.02;;
34497;SDS011;20744;50.938;7.286;2022-10-18T13:33:45;26.08;;;16.08;;
34497;SDS011;20744;50.938;7.286;2022-10-18T13:36:21;38.13;;;16.92;;
34497;SDS011;20744;50.938;7.286;2022-10-18T13:39:00;32.22;;;16.17;;
34497;SDS011;20744;50.938;7.286;2022-10-18T13:41:28;24.42;;;15.43;;
34497;SDS011;20744;50.938;7.286;2022-10-18T13:55:28;34.70;;;19.95;;
34497;SDS011;20744;50.938;7.286;2022-10-18T13:58:00;34.92;;;20.83;;
34497;SDS011;20744;50.938;7.286;2022-10-18T14:00:44;31.02;;;20.92;;
34497;SDS011;20744;50.938;7.286;2022-10-18T14:03:23;32.22;;;22.92;;
34497;SDS011;20744;50.938;7.286;2022-10-18T14:05:53;32.50;;;22.45;;
34497;SDS011;20744;50.938;7.286;2022-10-18T14:08:23;38.05;;;25.73;;
34497;SDS011;20744;50.938;7.286;2022-10-18T14:10:55;42.28;;;27.08;;
34497;SDS011;20744;50.938;7.286;2022-10-18T14:13:24;46.00;;;29.65;;
34497;SDS011;20744;50.938;7.286;2022-10-18T14:15:53;45.05;;;28.70;;
34497;SDS011;20744;50.938;7.286;2022-10-18T14:18:23;53.55;;;30.30;;
34497;SDS011;20744;50.938;7.286;2022-10-18T14:20:53;56.53;;;32.92;;
34497;SDS011;20744;50.938;7.286;2022-10-18T14:23:22;65.13;;;36.58;;
34497;SDS011;20744;50.938;7.286;2022-10-18T14:25:50;69.03;;;36.53;;
34497;SDS011;20744;50.938;7.286;2022-10-18T14:28:23;71.43;;;37.47;;
34497;SDS011;20744;50.938;7.286;2022-10-18T14:30:51;69.88;;;37.67;;
34497;SDS011;20744;50.938;7.286;2022-10-18T14:36:05;70.93;;;39.10;;
34497;SDS011;20744;50.938;7.286;2022-10-18T14:38:34;65.00;;;37.95;;
34497;SDS011;20744;50.938;7.286;2022-10-18T14:41:06;59.47;;;34.97;;
34497;SDS011;20744;50.938;7.286;2022-10-18T14:43:34;63.95;;;34.13;;
34497;SDS011;20744;50.938;7.286;2022-10-18T14:46:08;60.28;;;32.97;;
34497;SDS011;20744;50.938;7.286;2022-10-18T14:48:35;54.22;;;29.48;;
34497;SDS011;20744;50.938;7.286;2022-10-18T14:51:03;54.33;;;29.77;;
34497;SDS011;20744;50.938;7.286;2022-10-18T14:53:36;54.88;;;30.15;;
34497;SDS011;20744;50.938;7.286;2022-10-18T14:56:03;43.85;;;24.95;;
34497;SDS011;20744;50.938;7.286;2022-10-18T14:58:32;44.65;;;25.77;;
34497;SDS011;20744;50.938;7.286;2022-10-18T15:01:02;45.45;;;25.23;;
34497;SDS011;20744;50.938;7.286;2022-10-18T15:03:30;48.53;;;25.73;;
34497;SDS011;20744;50.938;7.286;2022-10-18T15:05:59;40.65;;;24.23;;
34497;SDS011;20744;50.938;7.286;2022-10-18T15:08:28;39.42;;;23.63;;
34497;SDS011;20744;50.938;7.286;2022-10-18T15:10:57;38.85;;;23.38;;
34497;SDS011;20744;50.938;7.286;2022-10-18T15:13:25;41.70;;;23.90;;